Time;durP1;ratioP1;P1;durP2;ratioP2;P2;SDS_P1;SDS_P2;PMS_P1;PMS_P2;Temp;Humidity;BMP_temperature;BMP_pressure;BME280_temperature;BME280_humidity;BME280_pressure;Samples;Min_cycle;Max_cycle;Signal;HPM_P1;HPM_P2
2022/10/03 00:00:17;;;;;;;2.67;1.65;;;;;;;;;;5036170;28;20025;-23
2022/10/03 00:02:49;;;;;;;1.58;1.35;;;;;;;;;;5036576;28;20026;-23
2022/10/03 00:05:36;;;;;;;1.40;1.30;;;;;;;;;;5035827;28;20045;-23
2022/10/03 00:08:17;;;;;;;2.30;1.50;;;;;;;;;;5036285;28;20096;-23
2022/10/03 00:10:49;;;;;;;2.17;1.60;;;;;;;;;;5036272;28;20547;-23
2022/10/03 00:13:47;;;;;;;2.15;1.58;;;;;;;;;;5035814;28;20022;-24
2022/10/03 00:16:17;;;;;;;2.22;1.50;;;;;;;;;;4982311;28;20080;-22
2022/10/03 00:18:44;;;;;;;2.40;1.98;;;;;;;;;;5036114;28;20365;-23
2022/10/03 00:21:28;;;;;;;1.58;1.40;;;;;;;;;;5035702;28;20033;-25
2022/10/03 00:24:00;;;;;;;1.90;1.70;;;;;;;;;;5035862;28;20104;-26
2022/10/03 00:26:39;;;;;;;2.03;1.50;;;;;;;;;;5035615;28;20034;-23
2022/10/03 00:29:05;;;;;;;1.52;1.40;;;;;;;;;;5035557;28;20029;-24
2022/10/03 00:31:37;;;;;;;1.80;1.45;;;;;;;;;;5035531;28;20040;-23
2022/10/03 00:34:07;;;;;;;3.25;1.55;;;;;;;;;;5035406;28;20048;-24
2022/10/03 00:36:51;;;;;;;1.80;1.70;;;;;;;;;;5035391;28;20474;-22
2022/10/03 00:39:26;;;;;;;1.58;1.48;;;;;;;;;;5035368;28;20029;-22
2022/10/03 00:42:08;;;;;;;2.35;1.75;;;;;;;;;;5035531;28;20416;-23
2022/10/03 00:44:46;;;;;;;3.00;2.03;;;;;;;;;;5035258;28;20021;-22
2022/10/03 00:47:28;;;;;;;1.92;1.38;;;;;;;;;;5035523;28;20050;-22
2022/10/03 00:50:09;;;;;;;1.50;1.40;;;;;;;;;;5035525;28;20450;-23
2022/10/03 00:52:47;;;;;;;2.83;1.95;;;;;;;;;;5035010;28;20506;-22
2022/10/03 00:55:29;;;;;;;1.30;1.13;;;;;;;;;;5034960;28;20071;-22
2022/10/03 00:57:58;;;;;;;1.55;1.45;;;;;;;;;;5035371;28;20029;-22
2022/10/03 01:00:30;;;;;;;2.20;1.90;;;;;;;;;;5034996;28;20025;-24
2022/10/03 01:03:02;;;;;;;2.00;1.80;;;;;;;;;;5034904;28;20055;-23
2022/10/03 01:05:45;;;;;;;2.30;1.92;;;;;;;;;;5034741;28;20042;-22
2022/10/03 01:08:46;;;;;;;2.17;1.70;;;;;;;;;;5035199;28;20451;-22
2022/10/03 01:11:32;;;;;;;2.03;1.45;;;;;;;;;;4936084;29;20143;-22
2022/10/03 01:14:01;;;;;;;2.08;1.45;;;;;;;;;;5028266;28;20040;-22
2022/10/03 01:16:38;;;;;;;2.08;1.88;;;;;;;;;;5034963;28;20025;-21
2022/10/03 01:19:23;;;;;;;1.48;1.38;;;;;;;;;;5035373;28;20359;-22
2022/10/03 01:22:09;;;;;;;1.45;1.25;;;;;;;;;;5034617;28;20439;-22
2022/10/03 01:24:38;;;;;;;1.77;1.40;;;;;;;;;;5034985;28;20033;-22
2022/10/03 01:27:06;;;;;;;1.20;1.10;;;;;;;;;;5017287;28;20401;-23
2022/10/03 01:32:36;;;;;;;1.98;1.23;;;;;;;;;;5035084;28;20118;-23
2022/10/03 01:35:02;;;;;;;1.20;1.10;;;;;;;;;;5034576;28;20030;-22
2022/10/03 01:37:43;;;;;;;1.50;1.40;;;;;;;;;;5034458;28;20446;-22
2022/10/03 01:40:25;;;;;;;2.13;1.52;;;;;;;;;;5034768;28;20025;-22
2022/10/03 01:43:06;;;;;;;1.45;1.35;;;;;;;;;;5034610;28;20036;-22
2022/10/03 01:45:33;;;;;;;2.33;2.13;;;;;;;;;;5034393;28;20462;-23
2022/10/03 01:48:06;;;;;;;1.25;1.15;;;;;;;;;;5035374;28;20358;-22
2022/10/03 01:50:36;;;;;;;1.52;1.23;;;;;;;;;;5038854;28;20026;-23
2022/10/03 01:53:12;;;;;;;1.83;1.65;;;;;;;;;;5038393;28;20454;-21
2022/10/03 01:55:50;;;;;;;1.65;1.23;;;;;;;;;;5038684;28;20132;-22
2022/10/03 01:58:19;;;;;;;1.65;1.35;;;;;;;;;;5038683;28;20025;-23
2022/10/03 02:01:06;;;;;;;1.65;1.20;;;;;;;;;;5038380;28;20118;-22
2022/10/03 02:03:45;;;;;;;2.05;1.40;;;;;;;;;;5037978;28;20025;-26
2022/10/03 02:06:15;;;;;;;1.42;1.33;;;;;;;;;;5038589;28;20116;-23
2022/10/03 02:08:42;;;;;;;1.75;1.40;;;;;;;;;;5038210;28;20099;-21
2022/10/03 02:11:09;;;;;;;1.58;1.30;;;;;;;;;;5038432;28;20409;-22
2022/10/03 02:13:38;;;;;;;1.38;1.27;;;;;;;;;;5020657;28;20091;-22
2022/10/03 02:16:06;;;;;;;1.58;1.30;;;;;;;;;;5038252;28;20037;-22
2022/10/03 02:18:44;;;;;;;1.35;1.25;;;;;;;;;;5038306;28;20064;-22
2022/10/03 02:21:23;;;;;;;1.67;1.55;;;;;;;;;;5038114;28;20160;-25
2022/10/03 02:24:04;;;;;;;1.90;1.65;;;;;;;;;;5037866;28;20032;-22
2022/10/03 02:26:49;;;;;;;1.30;1.20;;;;;;;;;;5038746;28;20447;-23
2022/10/03 02:29:33;;;;;;;2.20;2.03;;;;;;;;;;5038110;28;20367;-22
2022/10/03 02:32:17;;;;;;;1.30;1.20;;;;;;;;;;5037716;28;20116;-22
2022/10/03 02:35:02;;;;;;;1.83;1.27;;;;;;;;;;5037970;28;20030;-22
2022/10/03 02:37:46;;;;;;;2.35;1.77;;;;;;;;;;5037632;28;20087;-22
2022/10/03 02:40:27;;;;;;;2.58;1.42;;;;;;;;;;5037902;28;20030;-22
2022/10/03 02:43:03;;;;;;;1.65;1.20;;;;;;;;;;5037543;28;20025;-22
2022/10/03 02:45:39;;;;;;;1.27;1.17;;;;;;;;;;5037774;28;20033;-22
2022/10/03 02:48:20;;;;;;;3.33;1.20;;;;;;;;;;5037506;28;20030;-23
2022/10/03 02:51:10;;;;;;;1.67;1.58;;;;;;;;;;5037454;28;20022;-22
2022/10/03 02:53:55;;;;;;;2.38;1.42;;;;;;;;;;5037356;28;20025;-23
2022/10/03 02:56:24;;;;;;;1.30;1.20;;;;;;;;;;5037534;28;20438;-21
2022/10/03 02:58:59;;;;;;;1.98;1.33;;;;;;;;;;5037127;28;20018;-24
2022/10/03 03:01:26;;;;;;;1.08;0.95;;;;;;;;;;5037224;28;20366;-22
2022/10/03 03:03:55;;;;;;;2.70;1.73;;;;;;;;;;5037173;28;20034;-22
2022/10/03 03:06:31;;;;;;;2.28;1.75;;;;;;;;;;5037200;28;20026;-22
2022/10/03 03:09:16;;;;;;;1.52;1.42;;;;;;;;;;5037038;28;20120;-23
2022/10/03 03:11:43;;;;;;;1.42;1.33;;;;;;;;;;5037309;28;20084;-23
2022/10/03 03:14:09;;;;;;;1.95;1.48;;;;;;;;;;5019774;28;20064;-22
2022/10/03 03:16:53;;;;;;;1.33;1.23;;;;;;;;;;5036966;28;20049;-22
2022/10/03 03:19:32;;;;;;;1.67;1.23;;;;;;;;;;5037146;28;20087;-23
2022/10/03 03:22:15;;;;;;;1.60;1.50;;;;;;;;;;5037099;28;20025;-22
2022/10/03 03:24:50;;;;;;;1.77;1.27;;;;;;;;;;5037131;28;20033;-22
2022/10/03 03:27:36;;;;;;;1.30;1.10;;;;;;;;;;5036769;28;20052;-22
2022/10/03 03:30:14;;;;;;;1.50;1.40;;;;;;;;;;5009276;28;20049;-23
2022/10/03 03:33:05;;;;;;;2.47;1.63;;;;;;;;;;5036642;28;20103;-23
2022/10/03 03:35:34;;;;;;;1.38;1.23;;;;;;;;;;4992024;28;20474;-22
2022/10/03 03:38:13;;;;;;;1.67;1.25;;;;;;;;;;5036827;28;20022;-23
2022/10/03 03:40:43;;;;;;;1.55;1.10;;;;;;;;;;5037083;28;20036;-23
2022/10/03 03:43:09;;;;;;;1.13;1.10;;;;;;;;;;5036391;28;20026;-23
2022/10/03 03:45:39;;;;;;;1.38;1.20;;;;;;;;;;5036380;28;20152;-23
2022/10/03 03:48:14;;;;;;;2.80;1.30;;;;;;;;;;5036416;28;20025;-22
2022/10/03 03:50:40;;;;;;;1.33;1.20;;;;;;;;;;5036290;28;20041;-29
2022/10/03 03:53:09;;;;;;;1.52;0.90;;;;;;;;;;5036439;28;20458;-24
2022/10/03 03:55:47;;;;;;;1.45;1.17;;;;;;;;;;5036450;28;20113;-23
2022/10/03 03:58:32;;;;;;;1.30;1.20;;;;;;;;;;5036679;28;20026;-22
2022/10/03 04:01:16;;;;;;;1.45;1.33;;;;;;;;;;5036039;28;20021;-22
2022/10/03 04:03:45;;;;;;;1.80;1.50;;;;;;;;;;5035742;28;20064;-24
2022/10/03 04:06:14;;;;;;;1.73;1.23;;;;;;;;;;5036290;28;20044;-22
2022/10/03 04:08:40;;;;;;;1.80;1.42;;;;;;;;;;5036193;28;20450;-24
2022/10/03 04:11:21;;;;;;;1.42;1.20;;;;;;;;;;5035646;28;20025;-22
2022/10/03 04:13:55;;;;;;;2.60;1.75;;;;;;;;;;5035883;28;20374;-24
2022/10/03 04:19:12;;;;;;;1.25;1.15;;;;;;;;;;5035893;28;20156;-22
2022/10/03 04:21:44;;;;;;;2.25;1.17;;;;;;;;;;5035935;28;20390;-24
2022/10/03 04:24:13;;;;;;;1.20;1.10;;;;;;;;;;5018181;28;20083;-22
2022/10/03 04:26:39;;;;;;;4.38;2.42;;;;;;;;;;5035540;28;20116;-23
2022/10/03 04:29:17;;;;;;;1.40;1.30;;;;;;;;;;5035542;28;20064;-23
2022/10/03 04:31:48;;;;;;;1.58;1.33;;;;;;;;;;5035632;28;20021;-25
2022/10/03 04:34:49;;;;;;;1.02;0.93;;;;;;;;;;5035366;28;20065;-22
2022/10/03 04:37:15;;;;;;;;;;;;;;;;;;4936930;29;20044;-23
2022/10/03 04:39:47;;;;;;;1.23;1.13;;;;;;;;;;5015648;28;19927;-22
2022/10/03 04:42:22;;;;;;;1.90;1.38;;;;;;;;;;5035082;28;20450;-24
2022/10/03 04:45:07;;;;;;;1.90;1.38;;;;;;;;;;5035963;28;20032;-26
2022/10/03 04:47:53;;;;;;;2.08;1.35;;;;;;;;;;5035166;28;20048;-23
2022/10/03 04:50:31;;;;;;;1.35;1.25;;;;;;;;;;5035105;28;20477;-22
2022/10/03 04:52:57;;;;;;;1.65;1.30;;;;;;;;;;5035195;28;20081;-22
2022/10/03 04:55:41;;;;;;;1.77;1.15;;;;;;;;;;5035010;28;20026;-23
2022/10/03 04:58:07;;;;;;;2.60;1.17;;;;;;;;;;5035544;28;20022;-22
2022/10/03 05:01:00;;;;;;;1.55;1.20;;;;;;;;;;5035187;28;20347;-22
2022/10/03 05:03:44;;;;;;;1.70;1.60;;;;;;;;;;4997898;28;20467;-23
2022/10/03 05:06:10;;;;;;;1.55;1.17;;;;;;;;;;5034903;28;20045;-22
2022/10/03 05:08:47;;;;;;;1.95;1.10;;;;;;;;;;5034795;28;20025;-24
2022/10/03 05:11:18;;;;;;;1.65;1.23;;;;;;;;;;5035124;28;20363;-22
2022/10/03 05:13:51;;;;;;;2.38;1.55;;;;;;;;;;5034918;28;20030;-23
2022/10/03 05:16:28;;;;;;;1.63;1.20;;;;;;;;;;5017091;28;20045;-22
2022/10/03 05:18:54;;;;;;;1.92;1.17;;;;;;;;;;5034545;28;20036;-22
2022/10/03 05:21:23;;;;;;;1.55;1.10;;;;;;;;;;5034556;28;20099;-22
2022/10/03 05:23:53;;;;;;;1.30;1.20;;;;;;;;;;5033609;28;20093;-23
2022/10/03 05:26:24;;;;;;;1.65;1.00;;;;;;;;;;5034641;28;20480;-24
2022/10/03 05:28:54;;;;;;;1.75;1.13;;;;;;;;;;5034486;28;20030;-22
2022/10/03 05:31:34;;;;;;;1.10;0.98;;;;;;;;;;5034417;28;20459;-23
2022/10/03 05:34:23;;;;;;;1.73;1.15;;;;;;;;;;5016949;28;20080;-23
2022/10/03 05:37:07;;;;;;;3.65;1.10;;;;;;;;;;5034525;28;20409;-24
2022/10/03 05:39:45;;;;;;;6.22;1.17;;;;;;;;;;5016860;28;20486;-24
2022/10/03 05:42:17;;;;;;;2.55;1.08;;;;;;;;;;5034541;28;20415;-23
2022/10/03 05:44:45;;;;;;;2.28;1.08;;;;;;;;;;5034569;28;20153;-24
2022/10/03 05:50:13;;;;;;;6.32;1.38;;;;;;;;;;5034719;28;20064;-23
2022/10/03 05:52:51;;;;;;;2.47;1.33;;;;;;;;;;5034021;28;20065;-23
2022/10/03 05:55:29;;;;;;;3.25;1.35;;;;;;;;;;5034139;28;20120;-23
2022/10/03 05:58:14;;;;;;;1.60;1.25;;;;;;;;;;5034448;28;20095;-23
2022/10/03 06:03:43;;;;;;;4.40;1.73;;;;;;;;;;5336180;23;20072;-24
2022/10/03 06:06:10;;;;;;;6.10;2.38;;;;;;;;;;5034177;28;20044;-25
2022/10/03 06:08:57;;;;;;;8.57;1.70;;;;;;;;;;5033163;28;20032;-25
2022/10/03 06:11:33;;;;;;;10.73;2.00;;;;;;;;;;5032926;28;20044;-25
2022/10/03 06:14:08;;;;;;;12.20;1.42;;;;;;;;;;5034214;28;20104;-25
2022/10/03 06:16:58;;;;;;;4.75;1.85;;;;;;;;;;5034440;28;20036;-26
2022/10/03 06:19:50;;;;;;;4.57;1.65;;;;;;;;;;5034321;28;20041;-27
2022/10/03 06:22:30;;;;;;;8.27;1.55;;;;;;;;;;5011243;28;20462;-26
2022/10/03 06:25:12;;;;;;;3.65;1.38;;;;;;;;;;5034030;28;20029;-26
2022/10/03 06:27:50;;;;;;;4.10;1.40;;;;;;;;;;5034242;28;20108;-25
2022/10/03 06:30:35;;;;;;;16.30;2.97;;;;;;;;;;5034018;28;20037;-25
2022/10/03 06:33:04;;;;;;;5.70;1.73;;;;;;;;;;5033014;28;20100;-25
2022/10/03 06:35:46;;;;;;;12.40;1.70;;;;;;;;;;5035827;28;20369;-25
2022/10/03 06:38:43;;;;;;;3.10;1.52;;;;;;;;;;5037878;28;20464;-24
2022/10/03 06:41:28;;;;;;;12.80;1.90;;;;;;;;;;5038359;28;20418;-25
2022/10/03 06:43:57;;;;;;;14.77;2.03;;;;;;;;;;5036715;28;20039;-26
2022/10/03 06:46:44;;;;;;;14.32;1.75;;;;;;;;;;5037687;28;20063;-25
2022/10/03 06:49:29;;;;;;;4.28;1.50;;;;;;;;;;5037388;28;20026;-25
2022/10/03 06:52:01;;;;;;;8.20;1.67;;;;;;;;;;5037878;28;20111;-26
2022/10/03 06:54:45;;;;;;;5.75;1.65;;;;;;;;;;5037981;28;20035;-25
2022/10/03 06:57:33;;;;;;;14.55;1.88;;;;;;;;;;5037990;28;20080;-24
2022/10/03 07:00:03;;;;;;;14.77;3.70;;;;;;;;;;5038421;28;20022;-25
2022/10/03 07:02:35;;;;;;;9.57;1.70;;;;;;;;;;5037365;28;20038;-26
2022/10/03 07:05:20;;;;;;;7.47;1.73;;;;;;;;;;5037073;28;20030;-27
2022/10/03 07:07:55;;;;;;;14.60;2.10;;;;;;;;;;5037071;28;20493;-27
2022/10/03 07:10:24;;;;;;;11.27;2.10;;;;;;;;;;5037260;28;20026;-27
2022/10/03 07:13:20;;;;;;;9.27;1.50;;;;;;;;;;5037142;28;20040;-26
2022/10/03 07:16:08;;;;;;;9.25;2.78;;;;;;;;;;5024137;28;20139;-26
2022/10/03 07:18:53;;;;;;;11.88;1.90;;;;;;;;;;5036801;28;20085;-25
2022/10/03 07:21:41;;;;;;;10.43;2.70;;;;;;;;;;5037518;28;20021;-25
2022/10/03 07:24:09;;;;;;;6.97;2.17;;;;;;;;;;5037405;28;20025;-25
2022/10/03 07:26:35;;;;;;;22.95;2.60;;;;;;;;;;5038021;28;20116;-25
2022/10/03 07:29:01;;;;;;;11.20;1.52;;;;;;;;;;5037279;28;20454;-25
2022/10/03 07:31:27;;;;;;;7.35;1.90;;;;;;;;;;5037366;28;20029;-25
2022/10/03 07:34:13;;;;;;;8.27;1.85;;;;;;;;;;5036887;28;20025;-25
2022/10/03 07:39:46;;;;;;;21.25;2.13;;;;;;;;;;5036791;28;20111;-26
2022/10/03 07:42:12;;;;;;;8.57;1.75;;;;;;;;;;5036636;28;20033;-26
2022/10/03 07:44:39;;;;;;;10.38;2.40;;;;;;;;;;5036415;28;20156;-28
2022/10/03 07:47:24;;;;;;;14.27;1.58;;;;;;;;;;5034399;28;20044;-26
2022/10/03 07:50:01;;;;;;;5.70;1.95;;;;;;;;;;5036410;28;20576;-26
2022/10/03 07:52:38;;;;;;;6.85;1.63;;;;;;;;;;5036342;28;20193;-26
2022/10/03 07:55:23;;;;;;;16.38;2.58;;;;;;;;;;5036932;28;20378;-24
2022/10/03 07:58:14;;;;;;;11.15;2.45;;;;;;;;;;5037150;28;20033;-21
2022/10/03 08:00:56;;;;;;;13.85;1.83;;;;;;;;;;5035239;28;20108;-23
2022/10/03 08:03:48;;;;;;;8.48;1.52;;;;;;;;;;5036466;28;20049;-26
2022/10/03 08:06:23;;;;;;;9.65;1.60;;;;;;;;;;5036251;28;20029;-24
2022/10/03 08:08:58;;;;;;;14.90;2.08;;;;;;;;;;5035810;28;20069;-23
2022/10/03 08:11:39;;;;;;;6.47;2.35;;;;;;;;;;5036241;28;20420;-23
2022/10/03 08:14:20;;;;;;;9.63;1.42;;;;;;;;;;5036762;28;20029;-24
2022/10/03 08:16:52;;;;;;;17.23;2.50;;;;;;;;;;5037360;28;20048;-23
2022/10/03 08:19:37;;;;;;;11.98;1.67;;;;;;;;;;5036877;28;20025;-25
2022/10/03 08:22:21;;;;;;;8.13;1.65;;;;;;;;;;5035882;28;20121;-24
2022/10/03 08:24:48;;;;;;;8.13;1.73;;;;;;;;;;5036816;28;20109;-24
2022/10/03 08:27:14;;;;;;;12.50;2.30;;;;;;;;;;5036081;28;20037;-23
2022/10/03 08:29:52;;;;;;;12.25;1.65;;;;;;;;;;5036050;28;20040;-25
2022/10/03 08:32:33;;;;;;;5.15;1.70;;;;;;;;;;5036355;28;20380;-24
2022/10/03 08:35:05;;;;;;;10.32;2.58;;;;;;;;;;5036434;28;20031;-23
2022/10/03 08:37:50;;;;;;;11.82;1.80;;;;;;;;;;5036160;28;20375;-27
2022/10/03 08:40:35;;;;;;;7.72;3.13;;;;;;;;;;5036034;28;20047;-23
2022/10/03 08:43:19;;;;;;;8.13;1.95;;;;;;;;;;5036046;28;20032;-22
2022/10/03 08:46:01;;;;;;;11.43;2.17;;;;;;;;;;5035602;28;20029;-32
2022/10/03 08:48:27;;;;;;;;;;;;;;;;;;5035486;28;20025;-24
2022/10/03 08:50:53;;;;;;;14.45;2.55;;;;;;;;;;5035226;28;19909;-22
2022/10/03 08:53:38;;;;;;;8.63;2.13;;;;;;;;;;5035007;28;20036;-22
2022/10/03 08:56:19;;;;;;;10.45;2.00;;;;;;;;;;5034890;28;20155;-23
2022/10/03 08:59:03;;;;;;;14.80;2.17;;;;;;;;;;5034746;28;20018;-22
2022/10/03 09:02:08;;;;;;;7.45;1.83;;;;;;;;;;5035123;28;20040;-23
2022/10/03 09:04:49;;;;;;;7.75;2.15;;;;;;;;;;4974494;28;20047;-23
2022/10/03 09:07:15;;;;;;;;;;;;;;;;;;4975015;28;20396;-22
2022/10/03 09:10:00;;;;;;;10.35;3.17;;;;;;;;;;5009414;28;19913;-22
2022/10/03 09:12:45;;;;;;;8.32;2.13;;;;;;;;;;5034985;28;20104;-23
2022/10/03 09:15:11;;;;;;;9.80;2.25;;;;;;;;;;5034591;28;20044;-24
2022/10/03 09:17:40;;;;;;;12.15;2.25;;;;;;;;;;5034787;28;20064;-22
2022/10/03 09:20:25;;;;;;;8.35;1.60;;;;;;;;;;5034548;28;20100;-25
2022/10/03 09:23:13;;;;;;;9.77;2.10;;;;;;;;;;5034866;28;20119;-28
2022/10/03 09:25:48;;;;;;;6.15;1.80;;;;;;;;;;5035203;28;20022;-25
2022/10/03 09:28:30;;;;;;;8.43;1.92;;;;;;;;;;5034542;28;20106;-23
2022/10/03 09:31:02;;;;;;;10.90;2.53;;;;;;;;;;5034795;28;20434;-22
2022/10/03 09:33:31;;;;;;;10.98;3.03;;;;;;;;;;5033380;28;20033;-24
2022/10/03 09:36:03;;;;;;;10.30;3.03;;;;;;;;;;5034514;28;20386;-21
2022/10/03 09:38:44;;;;;;;16.55;2.45;;;;;;;;;;5034456;28;20089;-21
2022/10/03 09:41:29;;;;;;;12.35;2.08;;;;;;;;;;5034463;28;20025;-27
2022/10/03 09:44:12;;;;;;;9.00;2.35;;;;;;;;;;5034204;28;20090;-21
2022/10/03 09:47:21;;;;;;;7.30;1.85;;;;;;;;;;5034799;28;20098;-23
2022/10/03 09:49:37;;;;;;;14.30;2.35;;;;;;;;;;5034374;28;20163;-23
2022/10/03 09:52:14;;;;;;;17.08;2.15;;;;;;;;;;5034152;28;20040;-23
2022/10/03 09:55:00;;;;;;;10.35;1.90;;;;;;;;;;5034622;28;20034;-22
2022/10/03 09:57:37;;;;;;;9.82;2.13;;;;;;;;;;5034594;28;20094;-28
2022/10/03 10:00:06;;;;;;;11.27;1.70;;;;;;;;;;5034212;28;20033;-22
2022/10/03 10:02:44;;;;;;;10.30;2.13;;;;;;;;;;5034066;28;20416;-26
2022/10/03 10:05:19;;;;;;;4.68;1.60;;;;;;;;;;5034529;28;20025;-23
2022/10/03 10:08:11;;;;;;;11.30;1.90;;;;;;;;;;5034077;28;20163;-23
2022/10/03 10:10:37;;;;;;;14.75;3.30;;;;;;;;;;5034792;28;20037;-26
2022/10/03 10:13:07;;;;;;;14.32;2.75;;;;;;;;;;5038316;28;20021;-23
2022/10/03 10:15:51;;;;;;;16.92;1.92;;;;;;;;;;5038256;28;20032;-22
2022/10/03 10:18:17;;;;;;;10.90;2.78;;;;;;;;;;5037904;28;20033;-23
2022/10/03 10:21:02;;;;;;;9.68;3.72;;;;;;;;;;5038151;28;20029;-21
2022/10/03 10:23:47;;;;;;;9.00;1.92;;;;;;;;;;5038154;28;20519;-25
2022/10/03 10:26:19;;;;;;;4.20;1.70;;;;;;;;;;5038137;28;20368;-25
2022/10/03 10:29:01;;;;;;;7.20;2.42;;;;;;;;;;5037914;28;20430;-22
2022/10/03 10:31:27;;;;;;;8.95;1.88;;;;;;;;;;5037883;28;20036;-23
2022/10/03 10:34:16;;;;;;;10.10;2.00;;;;;;;;;;5037739;28;20029;-22
2022/10/03 10:37:03;;;;;;;14.05;3.08;;;;;;;;;;5037999;28;20033;-22
2022/10/03 10:39:48;;;;;;;11.75;2.50;;;;;;;;;;5037609;28;20061;-22
2022/10/03 10:42:33;;;;;;;12.88;2.38;;;;;;;;;;5038004;28;20029;-23
2022/10/03 10:45:18;;;;;;;12.70;2.60;;;;;;;;;;5037824;28;20462;-27
2022/10/03 10:48:02;;;;;;;8.95;2.03;;;;;;;;;;5037468;28;20091;-23
2022/10/03 10:50:49;;;;;;;6.53;2.67;;;;;;;;;;5037093;28;20095;-23
2022/10/03 10:53:36;;;;;;;9.07;2.40;;;;;;;;;;5037150;28;20037;-24
2022/10/03 10:56:21;;;;;;;8.60;2.15;;;;;;;;;;5037094;28;20049;-23
2022/10/03 10:58:47;;;;;;;9.43;2.67;;;;;;;;;;5037097;28;20091;-23
2022/10/03 11:01:40;;;;;;;13.02;2.20;;;;;;;;;;5037200;28;20407;-25
2022/10/03 11:04:33;;;;;;;21.42;2.25;;;;;;;;;;5034307;28;20045;-25
2022/10/03 11:07:24;;;;;;;10.73;2.28;;;;;;;;;;5037688;28;20025;-22
2022/10/03 11:10:00;;;;;;;5.85;1.73;;;;;;;;;;5037392;28;20041;-24
2022/10/03 11:12:32;;;;;;;14.95;2.13;;;;;;;;;;5036735;28;20029;-22
2022/10/03 11:15:17;;;;;;;13.70;2.38;;;;;;;;;;5037180;28;20052;-26
2022/10/03 11:17:53;;;;;;;9.07;2.47;;;;;;;;;;5037111;28;20056;-22
2022/10/03 11:20:34;;;;;;;13.23;2.60;;;;;;;;;;5036338;28;20450;-22
2022/10/03 11:23:00;;;;;;;;;;;;;;;;;;5036189;28;20300;-22
2022/10/03 11:25:46;;;;;;;12.38;1.60;;;;;;;;;;5035611;28;19913;-23
2022/10/03 11:28:31;;;;;;;9.05;2.20;;;;;;;;;;5036694;28;20033;-23
2022/10/03 11:31:11;;;;;;;9.35;2.75;;;;;;;;;;5035687;28;20037;-26
2022/10/03 11:33:49;;;;;;;21.45;2.35;;;;;;;;;;5036769;28;20040;-22
2022/10/03 11:36:42;;;;;;;10.30;2.40;;;;;;;;;;5036654;28;20025;-23
2022/10/03 11:39:31;;;;;;;15.10;2.30;;;;;;;;;;5013648;28;20044;-23
2022/10/03 11:42:12;;;;;;;34.47;3.67;;;;;;;;;;5036596;28;20123;-22
2022/10/03 11:44:44;;;;;;;10.40;2.47;;;;;;;;;;5036715;28;20167;-22
2022/10/03 11:47:29;;;;;;;16.85;2.33;;;;;;;;;;5036441;28;20029;-22
2022/10/03 11:50:17;;;;;;;8.63;2.17;;;;;;;;;;5036819;28;20037;-26
2022/10/03 11:52:53;;;;;;;12.95;2.90;;;;;;;;;;5036791;28;20025;-23
2022/10/03 11:55:34;;;;;;;17.10;3.85;;;;;;;;;;5035241;28;20124;-26
2022/10/03 11:58:19;;;;;;;15.20;2.60;;;;;;;;;;5036131;28;20025;-23
2022/10/03 12:00:47;;;;;;;9.07;2.83;;;;;;;;;;5035149;28;20485;-23
2022/10/03 12:03:21;;;;;;;17.08;2.78;;;;;;;;;;5035990;28;20059;-27
2022/10/03 12:09:09;;;;;;;22.80;2.50;;;;;;;;;;5036128;28;20041;-28
2022/10/03 12:11:44;;;;;;;18.08;2.70;;;;;;;;;;5036065;28;20072;-23
2022/10/03 12:14:26;;;;;;;13.07;3.08;;;;;;;;;;5035807;28;20035;-25
2022/10/03 12:17:07;;;;;;;17.27;2.95;;;;;;;;;;5035955;28;20056;-24
2022/10/03 12:19:37;;;;;;;15.38;2.38;;;;;;;;;;5035766;28;20406;-27
2022/10/03 12:22:06;;;;;;;10.15;2.45;;;;;;;;;;5035873;28;20099;-25
2022/10/03 12:24:35;;;;;;;22.30;3.97;;;;;;;;;;5035922;28;20420;-29
2022/10/03 12:27:04;;;;;;;13.40;3.05;;;;;;;;;;5035043;28;20358;-25
2022/10/03 12:29:33;;;;;;;17.77;3.53;;;;;;;;;;5035422;28;20037;-23
2022/10/03 12:32:15;;;;;;;26.77;4.15;;;;;;;;;;5035162;28;20021;-26
2022/10/03 12:34:49;;;;;;;19.33;2.72;;;;;;;;;;5035287;28;20037;-22
2022/10/03 12:37:24;;;;;;;17.77;2.85;;;;;;;;;;5035589;28;20102;-23
2022/10/03 12:40:03;;;;;;;15.73;2.75;;;;;;;;;;5035259;28;20366;-25
2022/10/03 12:42:33;;;;;;;8.40;2.20;;;;;;;;;;5034180;28;20104;-27
2022/10/03 12:45:02;;;;;;;20.98;3.25;;;;;;;;;;5035122;28;20099;-22
2022/10/03 12:47:44;;;;;;;17.88;3.22;;;;;;;;;;5034880;28;20144;-22
2022/10/03 12:50:35;;;;;;;13.18;2.38;;;;;;;;;;5034859;28;20454;-24
2022/10/03 12:53:11;;;;;;;17.10;2.33;;;;;;;;;;5035100;28;20057;-24
2022/10/03 12:55:38;;;;;;;13.57;4.05;;;;;;;;;;5034919;28;20025;-26
2022/10/03 12:58:04;;;;;;;15.73;3.33;;;;;;;;;;5034849;28;20466;-22
2022/10/03 13:00:42;;;;;;;18.20;3.00;;;;;;;;;;5034921;28;20071;-22
2022/10/03 13:03:37;;;;;;;16.92;2.92;;;;;;;;;;5034532;28;20120;-23
2022/10/03 13:06:16;;;;;;;10.90;2.38;;;;;;;;;;5034921;28;20101;-29
2022/10/03 13:08:50;;;;;;;15.30;2.70;;;;;;;;;;5035181;28;20029;-22
2022/10/03 13:11:31;;;;;;;14.80;2.83;;;;;;;;;;5034941;28;20025;-23
2022/10/03 13:14:00;;;;;;;9.63;2.60;;;;;;;;;;5034433;28;20087;-24
2022/10/03 13:16:26;;;;;;;6.13;2.38;;;;;;;;;;5034811;28;20398;-23
2022/10/03 13:18:55;;;;;;;17.08;3.20;;;;;;;;;;5034499;28;20442;-23
2022/10/03 13:21:41;;;;;;;14.52;2.53;;;;;;;;;;5034410;28;20040;-26
2022/10/03 13:24:30;;;;;;;17.00;2.97;;;;;;;;;;5035015;28;20067;-23
2022/10/03 13:27:15;;;;;;;22.70;2.60;;;;;;;;;;5034559;28;20044;-23
2022/10/03 13:29:43;;;;;;;17.77;5.07;;;;;;;;;;5034614;28;20033;-22
2022/10/03 13:32:15;;;;;;;11.90;2.38;;;;;;;;;;5034439;28;20025;-22
2022/10/03 13:34:56;;;;;;;12.77;2.97;;;;;;;;;;5035018;28;20460;-24
2022/10/03 13:37:40;;;;;;;13.48;2.35;;;;;;;;;;5034564;28;20044;-24
2022/10/03 13:40:08;;;;;;;8.80;2.47;;;;;;;;;;5034629;28;20037;-24
2022/10/03 13:42:46;;;;;;;18.20;2.88;;;;;;;;;;5034471;28;20086;-23
2022/10/03 13:45:17;;;;;;;24.02;3.13;;;;;;;;;;5032756;28;20509;-24
2022/10/03 13:48:01;;;;;;;13.60;2.65;;;;;;;;;;5034372;28;20545;-24
2022/10/03 13:50:39;;;;;;;12.65;2.60;;;;;;;;;;5034492;28;20034;-24
2022/10/03 13:53:17;;;;;;;16.20;3.25;;;;;;;;;;5034174;28;20470;-24
2022/10/03 13:55:51;;;;;;;14.32;2.85;;;;;;;;;;5034482;28;20369;-25
2022/10/03 13:58:25;;;;;;;26.58;3.88;;;;;;;;;;5034799;28;20032;-23
2022/10/03 14:01:10;;;;;;;9.93;1.95;;;;;;;;;;5034089;28;20036;-26
2022/10/03 14:03:47;;;;;;;16.60;4.18;;;;;;;;;;5033898;28;20061;-23
2022/10/03 14:06:13;;;;;;;10.60;2.85;;;;;;;;;;5034253;28;20021;-24
2022/10/03 14:08:40;;;;;;;15.50;2.67;;;;;;;;;;5033232;28;20417;-21
2022/10/03 14:11:23;;;;;;;15.18;3.00;;;;;;;;;;5034131;28;20026;-24
2022/10/03 14:14:07;;;;;;;16.70;4.38;;;;;;;;;;5034065;28;20052;-21
2022/10/03 14:16:43;;;;;;;7.43;2.45;;;;;;;;;;5033945;28;20087;-25
2022/10/03 14:19:17;;;;;;;11.95;2.28;;;;;;;;;;5034086;28;20036;-24
2022/10/03 14:22:02;;;;;;;18.50;3.00;;;;;;;;;;5034249;28;20029;-23
2022/10/03 14:24:37;;;;;;;18.45;3.28;;;;;;;;;;5034181;28;20064;-24
2022/10/03 14:27:22;;;;;;;27.38;4.57;;;;;;;;;;5034943;28;20037;-25
2022/10/03 14:30:00;;;;;;;22.75;3.42;;;;;;;;;;5033829;28;20044;-25
2022/10/03 14:32:30;;;;;;;25.80;3.88;;;;;;;;;;5033997;28;20045;-27
2022/10/03 14:34:56;;;;;;;23.50;3.22;;;;;;;;;;5033952;28;20051;-23
2022/10/03 14:37:22;;;;;;;23.75;3.72;;;;;;;;;;5033836;28;20036;-25
2022/10/03 14:39:51;;;;;;;14.38;3.17;;;;;;;;;;5033919;28;20116;-26
2022/10/03 14:42:36;;;;;;;19.50;2.58;;;;;;;;;;5034040;28;20409;-23
2022/10/03 14:45:12;;;;;;;9.10;2.65;;;;;;;;;;5034174;28;20037;-26
2022/10/03 14:47:41;;;;;;;11.57;3.25;;;;;;;;;;5034518;28;20037;-23
2022/10/03 14:50:14;;;;;;;19.92;3.08;;;;;;;;;;5033811;28;20064;-26
2022/10/03 14:52:54;;;;;;;29.63;2.30;;;;;;;;;;5034223;28;20052;-23
2022/10/03 14:55:21;;;;;;;11.75;2.70;;;;;;;;;;5035297;28;20029;-27
2022/10/03 14:57:50;;;;;;;14.23;3.13;;;;;;;;;;5037519;28;20029;-23
2022/10/03 15:00:36;;;;;;;10.65;3.08;;;;;;;;;;5037281;28;20048;-27
2022/10/03 15:03:20;;;;;;;14.25;3.00;;;;;;;;;;5037013;28;20077;-23
2022/10/03 15:05:55;;;;;;;7.25;2.20;;;;;;;;;;5037026;28;20121;-23
2022/10/03 15:08:22;;;;;;;9.18;2.38;;;;;;;;;;5037344;28;20437;-23
2022/10/03 15:10:51;;;;;;;15.70;2.70;;;;;;;;;;5037075;28;20108;-22
2022/10/03 15:13:18;;;;;;;14.43;2.53;;;;;;;;;;5037232;28;20021;-23
2022/10/03 15:15:46;;;;;;;16.40;3.20;;;;;;;;;;5036894;28;20025;-22
2022/10/03 15:18:17;;;;;;;17.40;2.88;;;;;;;;;;5037041;28;20335;-23
2022/10/03 15:20:44;;;;;;;9.00;2.42;;;;;;;;;;5036753;28;20030;-23
2022/10/03 15:23:29;;;;;;;23.63;3.22;;;;;;;;;;5036908;28;20108;-23
2022/10/03 15:25:56;;;;;;;15.10;2.78;;;;;;;;;;5036842;28;20033;-25
2022/10/03 15:28:22;;;;;;;14.88;2.22;;;;;;;;;;5036605;28;20036;-23
2022/10/03 15:30:50;;;;;;;14.77;3.28;;;;;;;;;;5036651;28;20096;-23
2022/10/03 15:33:20;;;;;;;20.50;2.95;;;;;;;;;;5036782;28;20040;-24
2022/10/03 15:35:49;;;;;;;10.70;2.50;;;;;;;;;;5037093;28;20152;-23
2022/10/03 15:38:22;;;;;;;10.73;2.45;;;;;;;;;;5036521;28;20057;-24
2022/10/03 15:41:07;;;;;;;16.67;4.07;;;;;;;;;;5036510;28;20026;-23
2022/10/03 15:43:52;;;;;;;25.88;7.15;;;;;;;;;;5036657;28;20026;-24
2022/10/03 15:46:29;;;;;;;16.30;3.20;;;;;;;;;;5036712;28;20037;-23
2022/10/03 15:48:55;;;;;;;14.95;2.97;;;;;;;;;;5036630;28;20065;-23
2022/10/03 15:51:25;;;;;;;15.20;2.65;;;;;;;;;;5035281;28;20030;-23
2022/10/03 15:53:53;;;;;;;15.77;3.47;;;;;;;;;;5036112;28;20117;-25